Columbia, Washington
Current Conditions -  °F | °C
As of 7:53 AM on Tuesday 21 Oct 2014 (Local Time) from KBFI Reporting Station
Broken Clouds Broken Clouds  
Wind Chill: 57°   Ceiling: 6000
Heat Index: 57°   Visibility: 10mi
Dew Point: 50°   Wind: 13mph
Humidity: 77%   Direction: 170°S
Pressure: 29.87"   Gusts: NA
Location:  47.5384°N, 122.277°W
Report Text: KBFI 211453Z 17011KT 10SM SCT025 BKN060 14/10 A2987 RMK AO2 RAE16 SLP115 P0000 60003 T01390100 51012
Loading
Personal Weather Stations






























Interactive Weather Map
Tropical Storm Tracking
New forecast layout! Learn more

10-Day Weather Forecast

Advertisements
Track Severe Weather on mobile